Presque Isle, MI (49777)

5:17 AM EDT on May 22, 2015 (GMT -0400)
Lotus Lake | | Change Station
CLOSE
Current Station
Personal Weather Station
Location: Presque Isle, MI
Elevation: 617 ft
Nearby Weather Stations
Active Advisory: Frost Advisory

Elev 617 ft 45.30 °N, 83.48 °W | Updated 9 minutes ago

Clear
Clear
38.1 °F
Feels Like 38 °F
N
2.2
Wind Variable Wind from NNW

Today
High -- | Low -- °F
--% Chance of Precip.
Yesterday
High -- | Low -- °F
Precip. -- in
5:56 AM 9:04 PM
Waxing Crescent, 20% visible
Pressure 30.09 in
Visibility 10.0 miles
Clouds Clear
Windchill 38 °F
Dew Point 35 °F
Humidity 88%
Rainfall 0.00 in
Snow Depth Not available.
UV 0 out of 12
Pollen 9.50 out of 12
Air Quality Not available.
Flu Activity Local Activity
METAR KPZQ 220855Z AUTO 27003KT 10SM CLR 01/M01 A3009 RMK AO2 T00051012

More Conditions Fewer Conditions

Pressure 30.09 in
Visibility 10.0 miles
Clouds Clear
Windchill 38 °F
Dew Point 35 °F
Humidity 88%
Rainfall 0.00 in
Snow Depth Not available.
UV 0 out of 12
Pollen 9.50 out of 12
Air Quality Not available.
Flu Activity Local Activity
METAR KPZQ 220855Z AUTO 27003KT 10SM CLR 01/M01 A3009 RMK AO2 T00051012

More Conditions Fewer Conditions

Nowcast | as of 4:00 am EDT on May 22, 2015

frost advisory in effect until 9 am EDT this morning... At 5 am...clear. Patchy frost. Temperature 37. Light winds. At 7 am...clear. Patchy frost. Temperature 38. Light winds. At 9 am...clear. Temperature 42. North winds 6 mph. At 11 am...clear. Temperature 46. North winds 10 mph.

×

10-Day Weather Forecast

Almanac

Astronomy

May. 22, 2015 Rise Set
Actual Time
Civil Twilight
Nautical Twilight
Astronomical Twilight
Moon
Length of Visible Light
Length of Day
Tomorrow will be .
, % of the Moon is Illuminated

Today's Extremes

State Highs State Lows

Community

WunderPhotos

Upload Photos

1,823,195 photos uploaded!

WunderBlogs® & News

Nearby

Air Quality

  Air Quality AQ Index Pollutant
Not available.

Snow Depth

Station Depth Elevation

Earthquake Activity

City Distance Mag. Time & Date
Minimum magnitude displayed is 2.5.

Coastal Water Temperatures

Place Temperature

Stations

Nearby Weather Stations

Station Location Temp. Windchill Dew Point Humidity Wind Precip. Elev Updated Type
                   
Frost Advisory
Statement as of 4:05 AM EDT on May 22, 2015

... Frost advisory remains in effect until 9 am EDT this morning...

Precautionary/preparedness actions...

A frost advisory means that widespread frost is expected.
Sensitive outdoor plants may be killed if left uncovered.